Time;durP1;ratioP1;P1;durP2;ratioP2;P2;SDS_P1;SDS_P2;PMS_P1;PMS_P2;Temp;Humidity;BMP_temperature;BMP_pressure;BME280_temperature;BME280_humidity;BME280_pressure;Samples;Min_cycle;Max_cycle;Signal;HPM_P1;HPM_P2
2022/11/22 00:01:55;;;;;;;7.35;3.67;;;;;;;8.64;84.73;98344.53;5050785;28;20455;-74
2022/11/22 00:04:21;;;;;;;8.03;3.10;;;;;;;8.62;84.91;98341.34;5021206;28;20442;-74
2022/11/22 00:06:46;;;;;;;9.18;3.47;;;;;;;8.66;84.84;98340.47;5018725;28;20406;-74
2022/11/22 00:09:11;;;;;;;5.10;3.07;;;;;;;8.67;84.73;98344.78;5025220;28;20871;-74
2022/11/22 00:11:36;;;;;;;4.77;3.30;;;;;;;8.67;85.08;98343.97;5019194;28;20416;-75
2022/11/22 00:14:02;;;;;;;7.50;3.43;;;;;;;8.65;85.12;98341.56;5032821;28;20407;-75
2022/11/22 00:16:27;;;;;;;5.57;3.30;;;;;;;8.60;85.36;98335.38;5026954;28;20770;-74
2022/11/22 00:18:52;;;;;;;4.80;3.43;;;;;;;8.62;85.21;98334.03;5032812;28;20406;-75
2022/11/22 00:21:17;;;;;;;6.43;3.80;;;;;;;8.62;84.97;98328.66;5027047;28;20413;-74
2022/11/22 00:23:43;;;;;;;6.67;3.23;;;;;;;8.64;85.23;98333.75;5038303;28;20417;-75
2022/11/22 00:26:10;;;;;;;6.33;3.13;;;;;;;8.62;85.41;98333.22;5026716;28;20469;-74
2022/11/22 00:28:39;;;;;;;7.27;3.70;;;;;;;8.62;85.01;98341.34;5027780;28;20405;-75
2022/11/22 00:31:04;;;;;;;7.32;3.05;;;;;;;8.63;85.52;98342.91;5028004;28;20422;-74
2022/11/22 00:33:29;;;;;;;7.07;3.17;;;;;;;8.62;85.51;98344.84;5023435;28;20471;-74
2022/11/22 00:35:55;;;;;;;3.33;2.37;;;;;;;8.64;85.84;98347.25;5021822;28;20412;-74
2022/11/22 00:38:20;;;;;;;3.95;2.30;;;;;;;8.63;85.65;98343.72;5024915;28;20400;-75
2022/11/22 00:40:45;;;;;;;5.57;2.47;;;;;;;8.63;85.67;98351.03;5019242;28;20409;-75
2022/11/22 00:43:11;;;;;;;4.17;1.90;;;;;;;8.64;85.99;98360.75;5020588;28;20468;-75
2022/11/22 00:45:36;;;;;;;4.53;2.10;;;;;;;8.66;85.93;98361.28;5024167;28;20419;-74
2022/11/22 00:48:01;;;;;;;3.65;2.33;;;;;;;8.68;86.02;98364.50;5023881;28;20413;-74
2022/11/22 00:50:26;;;;;;;3.87;1.87;;;;;;;8.67;86.06;98377.19;5031688;28;20414;-74
2022/11/22 00:52:52;;;;;;;5.73;1.63;;;;;;;8.68;86.05;98364.50;5019153;28;20412;-74
2022/11/22 00:55:17;;;;;;;4.77;1.63;;;;;;;8.68;85.77;98370.72;5020379;28;20398;-75
2022/11/22 00:57:42;;;;;;;2.70;1.20;;;;;;;8.70;86.00;98371.22;5059151;28;20882;-74
2022/11/22 01:00:08;;;;;;;4.57;1.57;;;;;;;8.74;86.13;98377.66;5021280;28;20474;-74
2022/11/22 01:02:33;;;;;;;2.25;1.15;;;;;;;8.77;85.99;98382.50;5022545;28;20491;-75
2022/11/22 01:04:59;;;;;;;5.13;1.27;;;;;;;8.81;85.99;98378.16;5045687;28;20487;-75
2022/11/22 01:07:24;;;;;;;2.97;1.40;;;;;;;8.79;85.94;98388.41;5025445;28;20395;-75
2022/11/22 01:09:49;;;;;;;3.90;1.30;;;;;;;8.83;86.13;98405.66;5027662;28;20496;-75
2022/11/22 01:12:14;;;;;;;3.70;1.30;;;;;;;8.85;86.07;98405.41;5028214;28;20797;-74
2022/11/22 01:14:40;;;;;;;4.00;1.30;;;;;;;8.86;85.95;98410.50;5028743;28;20407;-74
2022/11/22 01:17:05;;;;;;;3.17;1.20;;;;;;;8.87;86.32;98411.31;5033062;28;20414;-74
2022/11/22 01:19:30;;;;;;;3.60;1.20;;;;;;;8.88;86.10;98402.13;5019451;28;20399;-74
2022/11/22 01:21:55;;;;;;;2.67;1.10;;;;;;;8.87;86.01;98395.09;5028329;28;20496;-74
2022/11/22 01:24:21;;;;;;;1.93;1.27;;;;;;;8.90;85.99;98409.94;5031907;28;20870;-74
2022/11/22 01:26:46;;;;;;;1.73;1.30;;;;;;;8.90;86.06;98418.03;5028852;28;20405;-74
2022/11/22 01:29:11;;;;;;;2.93;1.30;;;;;;;8.89;85.97;98422.66;5020958;28;20417;-75
2022/11/22 01:31:37;;;;;;;1.43;1.03;;;;;;;8.89;86.03;98414.56;5024970;28;20477;-74
2022/11/22 01:34:04;;;;;;;2.03;1.27;;;;;;;8.92;86.29;98407.78;5030688;28;20422;-74
2022/11/22 01:36:29;;;;;;;1.93;1.23;;;;;;;8.96;86.15;98425.03;5023712;28;20537;-74
2022/11/22 01:38:54;;;;;;;3.60;1.60;;;;;;;8.96;86.09;98431.22;5031854;28;20399;-74
2022/11/22 01:41:20;;;;;;;3.97;1.33;;;;;;;8.98;86.17;98433.66;5020341;28;20397;-75
2022/11/22 01:43:45;;;;;;;3.07;1.30;;;;;;;8.98;86.03;98434.47;5023899;28;20453;-74
2022/11/22 01:46:31;;;;;;;2.40;1.35;;;;;;;9.01;86.02;98438.47;5027354;28;20806;-74
2022/11/22 01:49:05;;;;;;;6.82;1.40;;;;;;;9.00;86.03;98436.88;5025295;28;20482;-75
2022/11/22 01:51:33;;;;;;;4.97;1.23;;;;;;;9.01;85.85;98438.47;5020357;28;20427;-74
2022/11/22 01:54:04;;;;;;;1.63;1.15;;;;;;;9.02;86.04;98432.81;5022748;28;20451;-74
2022/11/22 01:56:31;;;;;;;4.95;1.30;;;;;;;9.03;85.99;98449.81;5026978;28;20477;-74
2022/11/22 01:59:02;;;;;;;5.20;1.25;;;;;;;9.02;85.70;98450.91;5026546;28;20389;-74
2022/11/22 02:01:27;;;;;;;3.13;1.00;;;;;;;9.03;85.91;98445.22;5021444;28;20809;-74
2022/11/22 02:03:58;;;;;;;4.18;1.30;;;;;;;9.02;85.72;98443.63;5030045;28;20463;-74
2022/11/22 02:06:30;;;;;;;4.13;1.45;;;;;;;9.03;85.83;98455.22;5030814;28;20474;-74
2022/11/22 02:09:08;;;;;;;5.83;1.50;;;;;;;9.05;85.76;98447.66;5026976;28;20807;-75
2022/11/22 02:11:37;;;;;;;3.28;1.20;;;;;;;9.04;85.88;98452.25;5017752;28;20427;-74
2022/11/22 02:14:03;;;;;;;3.53;1.20;;;;;;;9.04;85.79;98454.94;5026642;28;20513;-74
2022/11/22 02:16:28;;;;;;;2.00;1.10;;;;;;;9.06;86.00;98466.25;5016913;28;20925;-74
2022/11/22 02:18:54;;;;;;;4.60;1.50;;;;;;;9.05;85.92;98467.38;5025907;28;20468;-74
2022/11/22 02:21:19;;;;;;;2.23;1.30;;;;;;;9.05;85.69;98466.56;5020961;28;20409;-75
2022/11/22 02:24:12;;;;;;;3.63;1.97;;;;;;;9.04;85.98;98463.03;5022690;28;20422;-74
2022/11/22 02:26:37;;;;;;;4.10;1.70;;;;;;;9.06;85.77;98465.44;5026830;28;20457;-74
2022/11/22 02:29:06;;;;;;;3.37;1.30;;;;;;;9.07;85.72;98470.59;5026007;28;20393;-75
2022/11/22 02:31:37;;;;;;;3.90;1.40;;;;;;;9.08;85.83;98472.19;5031870;28;20421;-74
2022/11/22 02:34:03;;;;;;;2.55;1.00;;;;;;;9.08;85.71;98466.78;5026803;28;20397;-74
2022/11/22 02:36:34;;;;;;;2.60;1.52;;;;;;;9.09;85.47;98473.00;5030173;28;20826;-75
2022/11/22 02:38:59;;;;;;;4.85;1.40;;;;;;;9.06;85.81;98485.16;5020826;28;20907;-74
2022/11/22 02:41:25;;;;;;;4.95;1.30;;;;;;;9.07;85.64;98489.50;5022034;28;20419;-74
2022/11/22 02:43:51;;;;;;;5.45;1.30;;;;;;;9.06;85.65;98492.47;5020747;28;20804;-74
2022/11/22 02:46:19;;;;;;;3.67;1.45;;;;;;;9.03;85.52;98493.03;5023093;28;20913;-75
2022/11/22 02:48:45;;;;;;;5.15;1.67;;;;;;;9.01;85.70;98497.91;5022736;28;20457;-74
2022/11/22 02:51:15;;;;;;;3.30;1.80;;;;;;;8.98;85.44;98493.91;5019997;28;20819;-74
2022/11/22 02:53:46;;;;;;;4.55;1.23;;;;;;;8.95;85.84;98501.75;5020454;28;20397;-74
2022/11/22 02:56:11;;;;;;;5.28;1.63;;;;;;;8.93;85.71;98503.91;5023839;28;20408;-75
2022/11/22 02:58:37;;;;;;;6.45;1.60;;;;;;;8.91;85.60;98503.41;5021540;28;20395;-75
2022/11/22 03:01:03;;;;;;;4.30;1.90;;;;;;;8.90;85.51;98510.69;5025524;28;20945;-75
2022/11/22 03:03:29;;;;;;;6.07;1.60;;;;;;;8.89;85.37;98502.88;5023679;28;20489;-74
2022/11/22 03:05:54;;;;;;;5.13;1.25;;;;;;;8.87;85.50;98508.56;5036327;28;20487;-75
2022/11/22 03:08:19;;;;;;;5.27;1.27;;;;;;;8.85;85.54;98508.03;5019672;28;20508;-74
2022/11/22 03:10:44;;;;;;;2.83;0.90;;;;;;;8.85;85.74;98508.03;5019465;28;20433;-74
2022/11/22 03:13:10;;;;;;;5.53;1.53;;;;;;;8.84;85.41;98511.81;5030801;28;20411;-74
2022/11/22 03:15:35;;;;;;;9.23;1.87;;;;;;;8.80;85.79;98518.88;5016850;28;20411;-74
2022/11/22 03:18:02;;;;;;;7.83;1.63;;;;;;;8.81;85.65;98515.91;5020156;28;20416;-74
2022/11/22 03:20:29;;;;;;;5.55;1.30;;;;;;;8.84;85.51;98517.22;5015817;28;20459;-74
2022/11/22 03:22:54;;;;;;;5.00;1.50;;;;;;;8.84;85.32;98528.03;5023616;28;20747;-75
2022/11/22 03:25:20;;;;;;;10.13;1.67;;;;;;;8.89;85.21;98529.91;5014999;28;20397;-74
2022/11/22 03:27:45;;;;;;;7.77;2.03;;;;;;;8.90;84.77;98532.31;5025051;28;20805;-74
2022/11/22 03:30:11;;;;;;;10.13;4.77;;;;;;;8.91;84.79;98528.53;5023156;28;20435;-74
2022/11/22 03:32:36;;;;;;;13.85;6.45;;;;;;;8.93;84.65;98522.81;5038851;28;20403;-75
2022/11/22 03:35:01;;;;;;;18.43;6.17;;;;;;;8.96;84.77;98530.41;5027232;28;20502;-75
2022/11/22 03:37:27;;;;;;;9.63;2.50;;;;;;;8.95;84.29;98528.78;5021804;28;20399;-74
2022/11/22 03:39:52;;;;;;;13.97;4.67;;;;;;;8.95;84.77;98539.56;5027151;28;20461;-74
2022/11/22 03:42:17;;;;;;;33.43;8.37;;;;;;;8.90;84.35;98532.31;5028750;28;20480;-74
2022/11/22 03:44:42;;;;;;;18.17;4.47;;;;;;;8.89;84.73;98530.72;5023738;28;20424;-74
2022/11/22 03:47:08;;;;;;;12.10;2.43;;;;;;;8.84;84.81;98528.84;5023286;28;20407;-75
2022/11/22 03:49:33;;;;;;;21.93;5.37;;;;;;;8.82;84.90;98538.31;5024307;28;20806;-74
2022/11/22 03:51:58;;;;;;;15.03;3.93;;;;;;;8.81;84.91;98536.69;5020911;28;20463;-74
2022/11/22 03:54:23;;;;;;;20.57;5.27;;;;;;;8.77;84.78;98539.13;5031560;28;20763;-74
2022/11/22 03:56:49;;;;;;;5.23;1.80;;;;;;;8.74;84.57;98547.00;5023344;28;20491;-74
2022/11/22 03:59:14;;;;;;;18.70;4.57;;;;;;;8.72;84.65;98555.38;5023687;28;20457;-74
2022/11/22 04:01:39;;;;;;;12.00;3.70;;;;;;;8.72;84.67;98559.97;5028551;28;20406;-74
2022/11/22 04:04:05;;;;;;;15.30;4.67;;;;;;;8.70;84.44;98559.44;5030050;28;20426;-74
2022/11/22 04:06:30;;;;;;;15.60;5.00;;;;;;;8.70;84.59;98562.94;5030400;28;20420;-74
2022/11/22 04:08:55;;;;;;;21.70;5.83;;;;;;;8.71;84.50;98555.66;5028507;28;20399;-74
2022/11/22 04:11:20;;;;;;;10.43;2.83;;;;;;;8.71;84.18;98552.94;5014308;28;20425;-74
2022/11/22 04:16:30;;;;;;;20.10;4.23;;;;;;;8.68;83.97;98553.50;5016405;28;20408;-74
2022/11/22 04:18:55;;;;;;;13.90;3.83;;;;;;;8.68;84.18;98556.22;5023904;28;20469;-74
2022/11/22 04:21:32;;;;;;;15.00;3.60;;;;;;;8.70;84.01;98560.25;5030150;28;20430;-74
2022/11/22 04:26:41;;;;;;;10.60;2.95;;;;;;;8.75;83.60;98562.13;5025350;28;20406;-74
2022/11/22 04:29:06;;;;;;;9.80;2.27;;;;;;;8.74;83.65;98550.50;5016105;28;20397;-74
2022/11/22 04:34:16;;;;;;;9.50;2.47;;;;;;;8.66;83.76;98550.28;5018815;28;20390;-74
2022/11/22 04:36:41;;;;;;;14.37;2.53;;;;;;;8.60;83.53;98545.97;5020541;28;20760;-74
2022/11/22 04:39:06;;;;;;;10.73;2.30;;;;;;;8.57;83.25;98541.94;5018849;28;20455;-74
2022/11/22 04:41:32;;;;;;;7.33;1.70;;;;;;;8.51;83.51;98545.78;5022994;28;20487;-75
2022/11/22 04:46:41;;;;;;;7.53;1.85;;;;;;;8.45;83.73;98537.97;5020753;28;20835;-75
2022/11/22 04:49:06;;;;;;;8.93;1.83;;;;;;;8.48;83.60;98537.41;5017801;28;20491;-74
2022/11/22 04:54:15;;;;;;;8.43;2.20;;;;;;;8.44;83.49;98539.06;5016725;28;20523;-75
2022/11/22 04:56:40;;;;;;;10.87;2.50;;;;;;;8.42;83.50;98531.25;5020158;28;20436;-74
2022/11/22 04:59:05;;;;;;;8.40;1.83;;;;;;;8.42;83.52;98533.13;5022406;28;20399;-74
2022/11/22 05:01:31;;;;;;;8.67;1.93;;;;;;;8.38;83.21;98534.75;5025996;28;20414;-74
2022/11/22 05:03:56;;;;;;;6.40;2.03;;;;;;;8.35;83.29;98536.13;5028725;28;20410;-74
2022/11/22 05:06:21;;;;;;;6.70;1.47;;;;;;;8.33;83.17;98536.41;5024208;28;20849;-74
2022/11/22 05:08:46;;;;;;;5.53;1.40;;;;;;;8.32;83.13;98540.19;5016353;28;20506;-75
2022/11/22 05:11:12;;;;;;;6.47;1.60;;;;;;;8.31;83.22;98552.06;5016680;28;20417;-74
2022/11/22 05:13:41;;;;;;;8.13;1.47;;;;;;;8.29;83.26;98551.56;5030485;28;20408;-74
2022/11/22 05:16:09;;;;;;;7.45;1.75;;;;;;;8.29;83.85;98545.34;5030463;28;20392;-74
2022/11/22 05:18:36;;;;;;;4.95;1.50;;;;;;;8.25;83.45;98541.53;5025840;28;20912;-74
2022/11/22 05:21:05;;;;;;;8.65;1.77;;;;;;;8.25;83.53;98544.25;5027958;28;20502;-74
2022/11/22 05:26:15;;;;;;;5.55;1.90;;;;;;;8.23;83.67;98555.28;5036424;28;20496;-75
2022/11/22 05:28:40;;;;;;;10.93;3.07;;;;;;;8.22;83.81;98561.78;5026001;28;20949;-75
2022/11/22 05:31:11;;;;;;;7.17;1.90;;;;;;;8.22;84.04;98569.06;5017578;28;20419;-74
2022/11/22 05:33:38;;;;;;;8.00;2.00;;;;;;;8.23;84.16;98566.09;5024948;28;20840;-74
2022/11/22 05:36:04;;;;;;;8.50;2.28;;;;;;;8.21;84.27;98565.56;5018035;28;20772;-75
2022/11/22 05:38:30;;;;;;;5.70;1.90;;;;;;;8.23;84.07;98582.28;5016967;28;20409;-74
2022/11/22 05:40:55;;;;;;;7.13;1.90;;;;;;;8.21;83.80;98578.25;5027542;28;20405;-75
2022/11/22 05:43:20;;;;;;;8.20;2.73;;;;;;;8.21;83.71;98581.75;5031784;28;20827;-74
2022/11/22 05:45:45;;;;;;;8.30;2.20;;;;;;;8.21;84.13;98587.16;5033732;28;20387;-75
2022/11/22 05:48:11;;;;;;;8.07;2.23;;;;;;;8.20;84.53;98590.91;5027722;28;20395;-74
2022/11/22 05:50:36;;;;;;;8.23;2.00;;;;;;;8.21;84.13;98591.75;5023393;28;20780;-74
2022/11/22 05:53:02;;;;;;;7.90;1.53;;;;;;;8.22;84.31;98590.66;5026463;28;20407;-75
2022/11/22 05:55:29;;;;;;;8.00;2.03;;;;;;;8.23;84.17;98589.59;5031205;28;20411;-75
2022/11/22 05:57:55;;;;;;;7.53;1.65;;;;;;;8.24;84.02;98596.59;5022638;28;20394;-75
2022/11/22 06:00:20;;;;;;;5.90;1.55;;;;;;;8.26;84.31;98599.84;5030602;28;20932;-74
2022/11/22 06:02:46;;;;;;;6.70;1.80;;;;;;;8.28;84.41;98603.91;5024048;28;20395;-74
2022/11/22 06:05:11;;;;;;;7.17;1.90;;;;;;;8.27;84.14;98604.94;5033138;28;20387;-74
2022/11/22 06:07:36;;;;;;;6.73;1.50;;;;;;;8.30;84.29;98603.59;5018771;28;20397;-74
2022/11/22 06:10:02;;;;;;;10.87;1.93;;;;;;;8.29;83.78;98608.22;5029019;28;20474;-74
2022/11/22 06:12:27;;;;;;;9.27;2.30;;;;;;;8.31;83.77;98610.63;5031861;28;20965;-74
2022/11/22 06:14:52;;;;;;;8.07;1.80;;;;;;;8.32;83.54;98613.06;5012214;28;20405;-74
2022/11/22 06:17:18;;;;;;;8.80;1.80;;;;;;;8.32;83.60;98609.56;5022643;28;20415;-75
2022/11/22 06:19:43;;;;;;;9.60;2.07;;;;;;;8.35;83.15;98617.09;5022632;28;20434;-74
2022/11/22 06:22:09;;;;;;;15.37;3.87;;;;;;;8.36;83.31;98624.13;5032406;28;20908;-74
2022/11/22 06:24:34;;;;;;;7.63;2.50;;;;;;;8.38;83.06;98610.34;5025943;28;20465;-74
2022/11/22 06:26:59;;;;;;;10.43;2.60;;;;;;;8.37;82.99;98614.09;5021029;28;20435;-74
2022/11/22 06:29:25;;;;;;;6.57;1.63;;;;;;;8.32;83.11;98607.66;5031277;28;20422;-74
2022/11/22 06:31:50;;;;;;;5.37;1.67;;;;;;;8.34;83.17;98616.28;5032890;28;20768;-75
2022/11/22 06:34:15;;;;;;;11.23;1.83;;;;;;;8.37;83.23;98620.31;5028234;28;20414;-74
2022/11/22 06:36:41;;;;;;;10.67;2.30;;;;;;;8.36;83.13;98634.91;5022501;28;20427;-74
2022/11/22 06:39:07;;;;;;;10.90;2.23;;;;;;;8.36;82.99;98645.72;5022737;28;20475;-74
2022/11/22 06:41:35;;;;;;;5.97;2.40;;;;;;;8.33;83.25;98647.03;5029050;28;20408;-74
2022/11/22 06:44:07;;;;;;;10.60;2.90;;;;;;;8.35;83.21;98641.38;5024617;28;20415;-74
2022/11/22 06:46:33;;;;;;;10.83;3.00;;;;;;;8.36;83.45;98639.50;5023694;28;20887;-76
2022/11/22 06:48:58;;;;;;;8.15;2.10;;;;;;;8.33;83.20;98641.66;5022402;28;20475;-74
2022/11/22 06:51:29;;;;;;;7.17;2.50;;;;;;;8.33;83.46;98651.66;5023906;28;20885;-75
2022/11/22 06:53:55;;;;;;;4.05;1.63;;;;;;;8.31;83.55;98649.22;5021415;28;20403;-74
2022/11/22 06:56:34;;;;;;;7.95;2.20;;;;;;;8.30;83.68;98646.78;5031722;28;20449;-75
2022/11/22 06:59:05;;;;;;;7.72;2.05;;;;;;;8.30;83.90;98649.47;5028255;28;20424;-74
2022/11/22 07:01:31;;;;;;;7.60;1.92;;;;;;;8.33;83.85;98651.66;5031240;28;20399;-74
2022/11/22 07:03:58;;;;;;;6.85;2.15;;;;;;;8.37;83.35;98658.09;5032358;28;20388;-75
2022/11/22 07:06:32;;;;;;;9.20;2.15;;;;;;;8.38;83.89;98657.03;5028503;28;20395;-74
2022/11/22 07:08:58;;;;;;;5.23;1.60;;;;;;;8.40;83.81;98657.56;5032092;28;20447;-74
2022/11/22 07:11:26;;;;;;;6.35;2.15;;;;;;;8.41;83.93;98669.16;5032191;28;20778;-76
2022/11/22 07:13:51;;;;;;;6.78;2.15;;;;;;;8.42;83.90;98674.31;5031345;28;21024;-74
2022/11/22 07:16:19;;;;;;;8.25;2.35;;;;;;;8.46;83.43;98680.78;5017688;28;20492;-74
2022/11/22 07:18:45;;;;;;;9.65;2.05;;;;;;;8.46;83.45;98688.06;5030478;28;20391;-74
2022/11/22 07:21:12;;;;;;;9.20;2.22;;;;;;;8.49;83.65;98698.31;5022770;28;20408;-74
2022/11/22 07:23:39;;;;;;;10.75;3.90;;;;;;;8.50;83.56;98697.22;5016996;28;20436;-74
2022/11/22 07:26:04;;;;;;;11.77;3.75;;;;;;;8.51;83.67;98698.84;5027264;28;20790;-74
2022/11/22 07:28:30;;;;;;;11.07;2.88;;;;;;;8.51;83.69;98686.16;5031780;28;20397;-74
2022/11/22 07:31:00;;;;;;;9.13;2.60;;;;;;;8.54;83.45;98690.19;5031715;28;20762;-74
2022/11/22 07:33:25;;;;;;;7.93;2.40;;;;;;;8.56;83.55;98693.44;5025148;28;20899;-74
2022/11/22 07:35:50;;;;;;;5.97;2.70;;;;;;;8.57;83.59;98705.84;5026590;28;20391;-74
2022/11/22 07:38:16;;;;;;;12.03;2.70;;;;;;;8.55;83.47;98705.31;5031352;28;20383;-74
2022/11/22 07:40:41;;;;;;;6.57;2.43;;;;;;;8.57;83.42;98695.84;5030873;28;20798;-74
2022/11/22 07:43:07;;;;;;;10.33;3.20;;;;;;;8.59;83.11;98717.19;5031560;28;20390;-74
2022/11/22 07:45:32;;;;;;;8.87;3.37;;;;;;;8.60;83.67;98725.00;5028138;28;20407;-73
2022/11/22 07:48:00;;;;;;;7.60;2.93;;;;;;;8.59;83.43;98720.69;5030090;28;20797;-73
2022/11/22 07:50:26;;;;;;;8.35;2.92;;;;;;;8.59;83.08;98736.09;5029444;28;20411;-74
2022/11/22 07:52:59;;;;;;;10.38;2.28;;;;;;;8.57;83.40;98728.25;5020786;28;20774;-74
2022/11/22 07:55:25;;;;;;;16.40;2.80;;;;;;;8.58;83.22;98740.69;5029264;28;20414;-74
2022/11/22 07:57:57;;;;;;;11.25;2.83;;;;;;;8.59;82.97;98746.88;5021793;28;20399;-74
2022/11/22 08:00:22;;;;;;;13.02;2.63;;;;;;;8.60;82.82;98749.31;5031659;28;20805;-74
2022/11/22 08:02:47;;;;;;;7.13;2.25;;;;;;;8.58;82.52;98748.78;5029400;28;20383;-74
2022/11/22 08:05:13;;;;;;;9.23;2.10;;;;;;;8.57;82.84;98749.03;5030570;28;20383;-74
2022/11/22 08:07:38;;;;;;;10.32;2.42;;;;;;;8.59;82.37;98752.28;5023854;28;20811;-74
2022/11/22 08:10:03;;;;;;;9.57;1.80;;;;;;;8.61;82.46;98752.81;5029754;28;20902;-74
2022/11/22 08:12:29;;;;;;;6.33;1.70;;;;;;;8.60;82.27;98749.31;5026101;28;20401;-74
2022/11/22 08:14:54;;;;;;;7.70;1.73;;;;;;;8.59;82.09;98749.59;5023295;28;20510;-74
2022/11/22 08:17:19;;;;;;;9.40;1.80;;;;;;;8.64;81.59;98754.97;5031649;28;20387;-74
2022/11/22 08:19:45;;;;;;;8.23;2.00;;;;;;;8.66;81.40;98755.53;5030418;28;20473;-74
2022/11/22 08:22:11;;;;;;;6.72;1.92;;;;;;;8.66;81.47;98742.81;5020966;28;20456;-74
2022/11/22 08:24:36;;;;;;;8.40;2.00;;;;;;;8.65;81.13;98746.59;5023708;28;20409;-74
2022/11/22 08:27:01;;;;;;;8.63;2.00;;;;;;;8.69;80.93;98734.16;5022811;28;20759;-74
2022/11/22 08:29:27;;;;;;;9.53;1.83;;;;;;;8.72;81.03;98736.34;5030535;28;20450;-74
2022/11/22 08:31:53;;;;;;;5.80;1.83;;;;;;;8.75;80.60;98743.88;5032018;28;20770;-74
2022/11/22 08:34:18;;;;;;;9.88;2.33;;;;;;;8.81;80.33;98753.59;5032332;28;20405;-74
2022/11/22 08:36:43;;;;;;;7.63;1.70;;;;;;;8.82;79.98;98749.00;5020521;28;20410;-74
2022/11/22 08:39:09;;;;;;;5.47;2.00;;;;;;;8.82;79.78;98752.47;5026231;28;20452;-74
2022/11/22 08:41:34;;;;;;;9.47;1.90;;;;;;;8.87;79.83;98743.56;5024184;28;20501;-74
2022/11/22 08:43:59;;;;;;;7.27;1.40;;;;;;;8.89;79.66;98743.31;5018933;28;20466;-74
2022/11/22 08:46:24;;;;;;;5.23;1.93;;;;;;;8.92;79.62;98740.03;5018479;28;20412;-74
2022/11/22 08:48:52;;;;;;;8.93;1.98;;;;;;;8.93;79.28;98742.44;5026501;28;20449;-74
2022/11/22 08:51:18;;;;;;;7.28;1.45;;;;;;;8.95;79.38;98743.00;5022521;28;20414;-74
2022/11/22 08:53:43;;;;;;;11.93;2.10;;;;;;;8.97;79.08;98731.91;5022989;28;20416;-74
2022/11/22 08:56:14;;;;;;;4.10;1.30;;;;;;;9.01;79.15;98731.09;5017398;28;20415;-74
2022/11/22 08:58:39;;;;;;;7.90;1.70;;;;;;;9.09;78.85;98730.50;5017478;28;20423;-74
2022/11/22 09:01:10;;;;;;;8.50;1.33;;;;;;;9.14;78.70;98729.69;5020648;28;20414;-74
2022/11/22 09:03:37;;;;;;;6.70;1.75;;;;;;;9.18;78.40;98736.16;5018685;28;20552;-74
2022/11/22 09:06:08;;;;;;;6.35;1.60;;;;;;;9.22;78.00;98734.53;5026786;28;20419;-74
2022/11/22 09:08:34;;;;;;;8.07;1.42;;;;;;;9.21;77.93;98741.00;5015472;28;20424;-74
2022/11/22 09:11:19;;;;;;;8.85;2.15;;;;;;;9.26;77.77;98739.06;5028748;28;20419;-74
2022/11/22 09:13:45;;;;;;;9.20;2.25;;;;;;;9.39;77.46;98748.47;5017339;28;20896;-74
2022/11/22 09:16:12;;;;;;;7.25;2.55;;;;;;;9.43;77.25;98741.41;5016922;28;20488;-74
2022/11/22 09:18:37;;;;;;;7.40;1.90;;;;;;;9.48;77.26;98743.31;5024028;28;20415;-74
2022/11/22 09:21:06;;;;;;;6.10;1.73;;;;;;;9.51;76.66;98745.44;5021192;28;20408;-75
2022/11/22 09:23:32;;;;;;;9.87;2.23;;;;;;;9.55;77.09;98733.78;5015778;28;20413;-74
2022/11/22 09:25:59;;;;;;;8.93;2.22;;;;;;;9.61;76.81;98735.38;5016792;28;20774;-74
2022/11/22 09:28:26;;;;;;;5.57;1.83;;;;;;;9.67;76.37;98742.38;5015562;28;20909;-74
2022/11/22 09:31:03;;;;;;;5.82;1.67;;;;;;;9.74;76.14;98734.75;5019600;28;20431;-75
2022/11/22 09:33:29;;;;;;;9.05;1.73;;;;;;;9.75;76.25;98735.53;5015576;28;20414;-74
2022/11/22 09:36:03;;;;;;;5.90;2.47;;;;;;;9.86;76.06;98731.69;5032628;28;20808;-74
2022/11/22 09:38:29;;;;;;;12.73;3.15;;;;;;;9.96;75.53;98734.31;5016583;28;20411;-74
2022/11/22 09:40:56;;;;;;;6.05;2.08;;;;;;;10.06;75.27;98742.34;5015144;28;20467;-75
2022/11/22 09:43:48;;;;;;;8.97;2.00;;;;;;;10.13;75.02;98742.03;5015922;28;20431;-74
2022/11/22 09:46:48;;;;;;;7.80;2.53;;;;;;;10.06;74.46;98725.31;5019043;28;20768;-74
2022/11/22 09:49:21;;;;;;;8.68;2.38;;;;;;;9.98;74.44;98742.16;5015240;28;20435;-74
2022/11/22 09:51:54;;;;;;;8.73;1.40;;;;;;;9.91;73.89;98743.25;5017975;28;20454;-74
2022/11/22 09:54:25;;;;;;;5.57;1.83;;;;;;;9.90;73.74;98730.84;5017207;28;20420;-75
2022/11/22 09:56:56;;;;;;;9.63;1.75;;;;;;;9.95;73.59;98735.38;5016370;28;20420;-74
2022/11/22 09:59:27;;;;;;;5.97;1.50;;;;;;;9.96;73.61;98730.78;5012906;28;20411;-74
2022/11/22 10:02:00;;;;;;;9.52;2.00;;;;;;;9.95;73.84;98740.81;5013140;28;20453;-74
2022/11/22 10:04:32;;;;;;;8.45;1.42;;;;;;;9.94;73.54;98738.41;5018341;28;20421;-74
2022/11/22 10:07:03;;;;;;;10.35;1.90;;;;;;;9.88;72.88;98735.72;5004071;28;20448;-75
2022/11/22 10:09:45;;;;;;;9.23;1.47;;;;;;;9.85;72.60;98738.97;5016842;28;20420;-75
2022/11/22 10:12:21;;;;;;;10.73;2.05;;;;;;;9.83;72.32;98735.75;5017141;28;20473;-74
2022/11/22 10:14:57;;;;;;;7.97;1.63;;;;;;;9.79;71.90;98744.72;5014853;28;20906;-75
2022/11/22 10:17:25;;;;;;;7.05;2.05;;;;;;;9.81;71.79;98740.63;5015512;28;20492;-74
2022/11/22 10:20:03;;;;;;;10.98;1.75;;;;;;;9.88;72.05;98737.59;5014585;28;20417;-74
2022/11/22 10:22:29;;;;;;;12.55;1.88;;;;;;;9.88;71.84;98746.53;5016304;28;20416;-74
2022/11/22 10:24:57;;;;;;;6.70;1.33;;;;;;;9.84;71.89;98739.28;5030090;28;20436;-75
2022/11/22 10:27:22;;;;;;;5.90;1.70;;;;;;;9.89;71.98;98740.03;5016501;28;20943;-75
2022/11/22 10:30:00;;;;;;;5.47;1.63;;;;;;;9.90;71.58;98738.16;5013791;28;20438;-74
2022/11/22 10:32:37;;;;;;;7.65;1.80;;;;;;;9.95;71.80;98743.50;5015645;28;21162;-75
2022/11/22 10:35:36;;;;;;;10.33;1.97;;;;;;;10.02;71.94;98745.91;5015449;28;20452;-75
2022/11/22 10:38:39;;;;;;;6.60;2.05;;;;;;;10.05;71.52;98742.63;5013965;28;20906;-75
2022/11/22 10:41:26;;;;;;;7.13;1.83;;;;;;;10.08;71.82;98745.56;5014246;28;20416;-75
2022/11/22 10:44:06;;;;;;;6.32;1.95;;;;;;;10.00;71.11;98738.06;5015038;28;20779;-75
2022/11/22 10:46:55;;;;;;;8.05;1.83;;;;;;;10.01;71.06;98736.19;5015568;28;20406;-74
2022/11/22 10:49:26;;;;;;;5.07;1.30;;;;;;;10.09;70.87;98741.78;5012934;28;20406;-75
2022/11/22 10:52:01;;;;;;;9.77;1.80;;;;;;;10.11;70.64;98736.88;5031187;28;20428;-75
2022/11/22 10:54:57;;;;;;;7.80;1.70;;;;;;;10.18;70.43;98742.81;5013807;28;20415;-75
2022/11/22 10:57:43;;;;;;;5.93;1.20;;;;;;;10.25;70.51;98746.00;5014782;28;20413;-75
2022/11/22 11:00:23;;;;;;;7.10;1.60;;;;;;;10.20;70.22;98742.53;5016026;28;20496;-75
2022/11/22 11:03:12;;;;;;;6.72;1.40;;;;;;;10.16;70.05;98738.78;5019890;28;20786;-75
2022/11/22 11:05:44;;;;;;;4.28;1.45;;;;;;;10.20;70.07;98742.53;5012587;28;20823;-75
2022/11/22 11:08:15;;;;;;;6.65;1.63;;;;;;;10.24;70.06;98740.91;5016767;28;20499;-75
2022/11/22 11:10:41;;;;;;;6.32;1.83;;;;;;;10.21;69.76;98739.53;5016257;28;20437;-75
2022/11/22 11:13:19;;;;;;;9.00;1.90;;;;;;;10.16;69.14;98738.78;5016614;28;20403;-74
2022/11/22 11:15:49;;;;;;;4.85;1.08;;;;;;;10.21;69.13;98739.53;5018435;28;20895;-75
2022/11/22 11:18:23;;;;;;;6.80;1.63;;;;;;;10.28;69.04;98734.59;5014502;28;20415;-75
2022/11/22 11:20:51;;;;;;;8.13;1.10;;;;;;;10.33;68.70;98734.56;5015133;28;20439;-75
2022/11/22 11:23:16;;;;;;;3.87;1.20;;;;;;;10.34;67.89;98721.84;5014498;28;20417;-75
2022/11/22 11:25:44;;;;;;;5.47;1.23;;;;;;;10.39;67.67;98724.50;5013768;28;20416;-75
2022/11/22 11:28:17;;;;;;;4.28;1.10;;;;;;;10.40;67.09;98718.81;5014328;28;20439;-75
2022/11/22 11:30:51;;;;;;;5.38;1.50;;;;;;;10.40;66.56;98713.41;5013916;28;20556;-75
2022/11/22 11:33:22;;;;;;;4.45;1.10;;;;;;;10.39;66.36;98714.47;5016962;28;20497;-75
2022/11/22 11:35:51;;;;;;;5.75;0.95;;;;;;;10.41;66.51;98720.41;5013854;28;20418;-75
2022/11/22 11:38:45;;;;;;;4.72;1.25;;;;;;;10.44;66.42;98718.22;5010160;28;20414;-79
2022/11/22 11:41:31;;;;;;;3.67;1.35;;;;;;;10.52;66.16;98718.41;5022136;28;20417;-75
2022/11/22 11:43:59;;;;;;;6.18;0.98;;;;;;;10.55;65.07;98707.00;5027514;28;20778;-75
2022/11/22 11:46:42;;;;;;;5.50;1.08;;;;;;;10.61;64.78;98719.38;5027452;28;20399;-76
2022/11/22 11:49:14;;;;;;;7.75;1.30;;;;;;;10.62;64.25;98707.47;5020784;28;20422;-76
2022/11/22 11:51:52;;;;;;;6.57;1.20;;;;;;;10.63;64.42;98702.84;5015439;28;20919;-76
2022/11/22 11:54:21;;;;;;;3.87;1.20;;;;;;;10.70;64.33;98701.41;5014747;28;20469;-76
2022/11/22 11:57:09;;;;;;;3.55;1.20;;;;;;;10.79;64.48;98693.47;5016362;28;20502;-76
2022/11/22 11:59:37;;;;;;;5.75;1.92;;;;;;;10.82;64.29;98696.41;5019663;28;20823;-76
2022/11/22 12:02:22;;;;;;;6.85;1.13;;;;;;;10.83;63.43;98680.97;5015024;28;20416;-76